createdAt,value
2022-12-08T00:00:46.851Z,100258.25
2022-12-08T00:03:32.267Z,100249.53
2022-12-08T00:06:36.982Z,100253.56
2022-12-08T00:09:32.035Z,100246.03
2022-12-08T00:12:19.565Z,100241.69
2022-12-08T00:15:05.250Z,100236.22
2022-12-08T00:17:50.862Z,100231.13
2022-12-08T00:20:36.259Z,100238.53
2022-12-08T00:23:21.618Z,100227.50
2022-12-08T00:26:07.066Z,100231.06
2022-12-08T00:28:52.033Z,100231.72
2022-12-08T00:31:37.540Z,100221.13
2022-12-08T00:34:22.932Z,100232.06
2022-12-08T00:37:08.172Z,100222.69
2022-12-08T00:39:53.037Z,100217.59
2022-12-08T00:42:38.034Z,100222.25
2022-12-08T00:45:23.522Z,100223.28
2022-12-08T00:48:08.468Z,100224.97
2022-12-08T00:50:53.368Z,100219.31
2022-12-08T00:53:38.327Z,100223.91
2022-12-08T00:56:24.387Z,100221.25
2022-12-08T00:59:10.138Z,100213.81
2022-12-08T01:01:55.810Z,100218.06
2022-12-08T01:04:40.622Z,100219.09
2022-12-08T01:07:26.042Z,100209.03
2022-12-08T01:10:11.443Z,100220.25
2022-12-08T01:12:58.448Z,100215.28
2022-12-08T01:15:44.002Z,100216.22
2022-12-08T01:18:29.551Z,100211.78
2022-12-08T01:21:14.662Z,100215.94
2022-12-08T01:24:01.074Z,100219.38
2022-12-08T01:26:47.495Z,100214.41
2022-12-08T01:29:32.744Z,100221.88
2022-12-08T01:32:18.024Z,100217.56
2022-12-08T01:35:03.302Z,100222.56
2022-12-08T01:37:50.204Z,100216.41
2022-12-08T01:40:36.377Z,100212.13
2022-12-08T01:43:22.224Z,100213.13
2022-12-08T01:46:07.337Z,100209.72
2022-12-08T01:49:02.515Z,100206.22
2022-12-08T01:52:02.631Z,100213.22
2022-12-08T01:54:53.134Z,100214.13
2022-12-08T01:57:44.981Z,100209.03
2022-12-08T02:00:30.197Z,100207.66
2022-12-08T02:03:31.856Z,100189.75
2022-12-08T02:06:18.778Z,100198.28
2022-12-08T02:09:05.936Z,100181.28
2022-12-08T02:11:51.389Z,100182.16
2022-12-08T02:14:36.890Z,100180.34
2022-12-08T02:17:47.856Z,100178.41
2022-12-08T02:20:49.063Z,100179.28
2022-12-08T02:23:46.000Z,100177.63
2022-12-08T02:26:40.076Z,100164.78
2022-12-08T02:29:28.560Z,100175.72
2022-12-08T02:32:51.003Z,100166.41
2022-12-08T02:35:35.971Z,100167.16
2022-12-08T02:38:33.666Z,100163.88
2022-12-08T02:41:29.907Z,100156.22
2022-12-08T02:44:44.141Z,100163.09
2022-12-08T02:47:31.793Z,100163.88
2022-12-08T02:50:16.800Z,100159.78
2022-12-08T02:53:02.094Z,100158.75
2022-12-08T02:56:28.716Z,100163.16
2022-12-08T02:59:33.719Z,100154.66
2022-12-08T03:02:32.182Z,100157.53
2022-12-08T03:05:35.485Z,100150.78
2022-12-08T03:08:43.298Z,100139.81
2022-12-08T03:11:41.633Z,100135.34
2022-12-08T03:14:29.173Z,100129.38
2022-12-08T03:17:16.828Z,100126.28
2022-12-08T03:20:07.495Z,100127.94
2022-12-08T03:22:55.559Z,100123.03
2022-12-08T03:25:51.849Z,100113.69
2022-12-08T03:28:37.968Z,100106.09
2022-12-08T03:31:35.484Z,100106.84
2022-12-08T03:34:23.757Z,100106.09
2022-12-08T03:37:08.950Z,100095.94
2022-12-08T03:39:53.864Z,100089.34
2022-12-08T03:42:39.143Z,100085.06
2022-12-08T03:45:24.694Z,100086.78
2022-12-08T03:48:09.852Z,100086.91
2022-12-08T03:50:54.756Z,100074.38
2022-12-08T03:53:39.855Z,100076.03
2022-12-08T03:56:37.172Z,100073.41
2022-12-08T03:59:22.220Z,100059.06
2022-12-08T04:02:07.696Z,100054.97
2022-12-08T04:04:52.954Z,100057.53
2022-12-08T04:07:38.547Z,100052.44
2022-12-08T04:10:23.785Z,100050.75
2022-12-08T04:13:09.130Z,100041.56
2022-12-08T04:15:54.392Z,100042.47
2022-12-08T04:18:39.463Z,100041.56
2022-12-08T04:21:24.832Z,100032.22
2022-12-08T04:24:10.223Z,100033.91
2022-12-08T04:26:55.632Z,100037.31
2022-12-08T04:29:41.203Z,100037.31
2022-12-08T04:32:26.546Z,100031.47
2022-12-08T04:35:11.472Z,100030.59
2022-12-08T04:37:56.558Z,100027.25
2022-12-08T04:40:41.864Z,100027.16
2022-12-08T04:43:26.993Z,100018.56
2022-12-08T04:46:12.016Z,100030.59
2022-12-08T04:48:57.259Z,100020.38
2022-12-08T04:51:42.224Z,100025.41
2022-12-08T04:54:27.238Z,100020.38
2022-12-08T04:57:13.509Z,100022.03
2022-12-08T04:59:58.663Z,100031.50
2022-12-08T05:02:43.720Z,100020.13
2022-12-08T05:05:29.116Z,100020.75
2022-12-08T05:08:14.056Z,100019.97
2022-12-08T05:11:05.113Z,100028.31
2022-12-08T05:13:50.162Z,100026.50
2022-12-08T05:16:36.662Z,100026.44
2022-12-08T05:19:21.518Z,100030.56
2022-12-08T05:22:07.070Z,100028.69
2022-12-08T05:24:52.302Z,100025.09
2022-12-08T05:27:40.616Z,100019.00
2022-12-08T05:30:25.550Z,100021.13
2022-12-08T05:33:10.407Z,100018.06
2022-12-08T05:35:55.472Z,100017.06
2022-12-08T05:38:41.091Z,100014.44
2022-12-08T05:41:26.471Z,100009.50
2022-12-08T05:44:11.865Z,100003.97
2022-12-08T05:46:57.914Z,99997.28
2022-12-08T05:49:43.237Z,99998.97
2022-12-08T05:52:28.339Z,99993.25
2022-12-08T05:55:13.988Z,99999.22
2022-12-08T05:58:03.075Z,99995.84
2022-12-08T06:00:51.924Z,100001.00
2022-12-08T06:03:37.201Z,100007.22
2022-12-08T06:06:22.668Z,100004.78
2022-12-08T06:09:07.871Z,99992.91
2022-12-08T06:11:53.409Z,99996.25
2022-12-08T06:14:39.799Z,99995.59
2022-12-08T06:17:24.900Z,99989.53
2022-12-08T06:20:10.472Z,99988.72
2022-12-08T06:22:55.586Z,99992.91
2022-12-08T06:25:41.037Z,99990.47
2022-12-08T06:28:26.364Z,99989.53
2022-12-08T06:31:18.643Z,99990.59
2022-12-08T06:34:04.294Z,99989.53
2022-12-08T06:36:49.403Z,99996.38
2022-12-08T06:39:34.725Z,99992.09
2022-12-08T06:42:20.057Z,99993.81
2022-12-08T06:45:05.596Z,99994.69
2022-12-08T06:47:50.644Z,99984.44
2022-12-08T06:50:35.621Z,99989.53
2022-12-08T06:53:20.588Z,99992.03
2022-12-08T06:56:06.650Z,99996.44
2022-12-08T06:58:52.967Z,99992.13
2022-12-08T07:01:38.452Z,99993.03
2022-12-08T07:04:24.094Z,99988.72
2022-12-08T07:07:11.477Z,99996.44
2022-12-08T07:09:57.093Z,99990.53
2022-12-08T07:12:44.267Z,99999.13
2022-12-08T07:15:29.308Z,99997.44
2022-12-08T07:18:14.670Z,99996.56
2022-12-08T07:21:08.005Z,99999.97
2022-12-08T07:23:57.545Z,100003.25
2022-12-08T07:26:43.635Z,100001.56
2022-12-08T07:29:29.032Z,100002.63
2022-12-08T07:32:13.960Z,100000.06
2022-12-08T07:34:59.151Z,100004.34
2022-12-08T07:37:44.754Z,100010.81
2022-12-08T07:40:30.036Z,100008.34
2022-12-08T07:43:15.283Z,100010.09
2022-12-08T07:46:00.176Z,100000.81
2022-12-08T07:48:45.920Z,100009.22
2022-12-08T07:51:31.294Z,99995.81
2022-12-08T07:54:16.298Z,100006.81
2022-12-08T07:57:01.686Z,100007.28
2022-12-08T07:59:46.877Z,100000.91
2022-12-08T08:02:32.356Z,100003.63
2022-12-08T08:05:17.752Z,100001.38
2022-12-08T08:08:03.260Z,100004.38
2022-12-08T08:10:50.694Z,99997.59
2022-12-08T08:13:36.061Z,99998.28
2022-12-08T08:16:21.415Z,100000.16
2022-12-08T08:19:06.880Z,99987.50
2022-12-08T08:21:51.988Z,99996.72
2022-12-08T08:24:43.127Z,100005.38
2022-12-08T08:27:30.204Z,100002.75
2022-12-08T08:30:20.408Z,100008.72
2022-12-08T08:33:06.171Z,100007.09
2022-12-08T08:35:51.805Z,100011.53
2022-12-08T08:38:37.603Z,100014.09
2022-12-08T08:41:22.881Z,100009.72
2022-12-08T08:44:08.474Z,100012.41
2022-12-08T08:46:53.887Z,100019.13
2022-12-08T08:49:39.293Z,100011.66
2022-12-08T08:52:24.610Z,100017.19
2022-12-08T08:55:10.360Z,100016.91
2022-12-08T08:57:55.702Z,100015.31
2022-12-08T09:00:41.079Z,100011.28
2022-12-08T09:03:26.130Z,100025.00
2022-12-08T09:06:11.852Z,100015.50
2022-12-08T09:08:57.122Z,100022.75
2022-12-08T09:11:42.903Z,100020.63
2022-12-08T09:14:27.865Z,100020.09
2022-12-08T09:17:13.369Z,100020.72
2022-12-08T09:19:58.581Z,100020.00
2022-12-08T09:22:44.063Z,100022.41
2022-12-08T09:25:29.553Z,100028.69
2022-12-08T09:28:15.302Z,100026.41
2022-12-08T09:31:00.924Z,100029.69
2022-12-08T09:33:46.361Z,100026.47
2022-12-08T09:36:32.050Z,100018.63
2022-12-08T09:39:17.420Z,100027.34
2022-12-08T09:42:05.649Z,100026.47
2022-12-08T09:44:54.851Z,100021.88
2022-12-08T09:47:42.146Z,100030.34
2022-12-08T09:50:43.672Z,100016.69
2022-12-08T09:53:35.896Z,100016.16
2022-12-08T09:56:25.620Z,100019.03
2022-12-08T09:59:24.741Z,100026.38
2022-12-08T10:02:24.901Z,100019.22
2022-12-08T10:05:14.019Z,100026.41
2022-12-08T10:08:16.131Z,100025.88
2022-12-08T10:11:14.038Z,100020.88
2022-12-08T10:14:29.095Z,100015.00
2022-12-08T10:17:33.491Z,100017.75
2022-12-08T10:20:22.468Z,100011.25
2022-12-08T10:23:33.536Z,100012.31
2022-12-08T10:26:20.666Z,100013.81
2022-12-08T10:29:05.954Z,100009.53
2022-12-08T10:31:52.447Z,100013.28
2022-12-08T10:34:59.222Z,100011.66
2022-12-08T10:37:58.796Z,100008.81
2022-12-08T10:40:45.881Z,100005.72
2022-12-08T10:43:32.829Z,100013.28
2022-12-08T10:46:22.975Z,99998.53
2022-12-08T10:49:08.152Z,99997.13
2022-12-08T10:51:53.200Z,100001.72
2022-12-08T10:54:42.585Z,99997.25
2022-12-08T10:57:28.156Z,99985.91
2022-12-08T11:00:34.862Z,99996.88
2022-12-08T11:03:34.347Z,99989.84
2022-12-08T11:06:30.790Z,99996.91
2022-12-08T11:09:16.179Z,99997.31
2022-12-08T11:12:24.710Z,99988.91
2022-12-08T11:15:16.057Z,99991.03
2022-12-08T11:18:08.295Z,99995.31
2022-12-08T11:21:13.686Z,99990.19
2022-12-08T11:23:58.927Z,99990.22
2022-12-08T11:26:50.750Z,99992.78
2022-12-08T11:29:36.206Z,99991.75
2022-12-08T11:32:21.373Z,99991.22
2022-12-08T11:35:23.697Z,99994.00
2022-12-08T11:38:21.575Z,99985.38
2022-12-08T11:41:15.844Z,99984.44
2022-12-08T11:44:01.894Z,99993.31
2022-12-08T11:46:56.078Z,99978.16
2022-12-08T11:49:42.665Z,99984.78
2022-12-08T11:52:32.652Z,99978.06
2022-12-08T11:55:20.554Z,99978.00
2022-12-08T11:58:20.320Z,99973.41
2022-12-08T12:01:06.209Z,99969.34
2022-12-08T12:04:14.293Z,99967.84
2022-12-08T12:07:05.265Z,99960.22
2022-12-08T12:10:28.361Z,99959.97
2022-12-08T12:13:32.350Z,99962.50
2022-12-08T12:16:21.955Z,99965.97
2022-12-08T12:19:17.888Z,99960.75
2022-12-08T12:22:15.444Z,99953.25
2022-12-08T12:25:02.371Z,99950.72
2022-12-08T12:27:48.239Z,99955.31
2022-12-08T12:31:05.648Z,99951.34
2022-12-08T12:33:53.497Z,99952.34
2022-12-08T12:37:03.581Z,99949.13
2022-12-08T12:39:52.081Z,99949.75
2022-12-08T12:42:46.044Z,99948.38
2022-12-08T12:45:33.785Z,99946.69
2022-12-08T12:48:25.316Z,99950.94
2022-12-08T12:51:36.040Z,99952.41
2022-12-08T12:54:28.687Z,99944.66
2022-12-08T12:57:14.288Z,99944.53
2022-12-08T12:59:59.818Z,99941.31
2022-12-08T13:02:44.952Z,99946.41
2022-12-08T13:05:35.891Z,99935.28
2022-12-08T13:08:26.218Z,99937.16
2022-12-08T13:11:12.589Z,99936.13
2022-12-08T13:13:59.510Z,99934.91
2022-12-08T13:16:45.280Z,99930.28
2022-12-08T13:19:32.464Z,99919.84
2022-12-08T13:22:54.971Z,99920.84
2022-12-08T13:25:40.446Z,99916.16
2022-12-08T13:28:28.888Z,99915.09
2022-12-08T13:31:49.836Z,99906.00
2022-12-08T13:34:50.357Z,99909.97
2022-12-08T13:37:54.494Z,99914.88
2022-12-08T13:40:42.371Z,99918.03
2022-12-08T13:44:20.049Z,99920.06
2022-12-08T13:47:31.639Z,99912.25
2022-12-08T13:54:09.861Z,99924.19
2022-12-08T13:59:47.663Z,99934.84
2022-12-08T14:02:47.766Z,99940.38
2022-12-08T14:06:11.107Z,99945.94
2022-12-08T14:09:06.916Z,99948.63
2022-12-08T14:11:59.277Z,99942.88
2022-12-08T14:15:03.210Z,99944.97
2022-12-08T14:17:57.060Z,99944.03
2022-12-08T14:21:12.632Z,99943.91
2022-12-08T14:23:47.180Z,99945.31
2022-12-08T14:26:34.425Z,99949.25
2022-12-08T14:29:37.065Z,99943.25
2022-12-08T14:32:33.385Z,99941.59
2022-12-08T14:35:18.815Z,99943.19
2022-12-08T14:38:15.616Z,99944.16
2022-12-08T14:41:07.108Z,99945.81
2022-12-08T14:44:00.450Z,99951.88
2022-12-08T14:47:06.812Z,99956.47
2022-12-08T14:49:55.090Z,99958.09
2022-12-08T14:52:44.405Z,99956.47
2022-12-08T14:55:39.673Z,99957.66
2022-12-08T14:58:30.285Z,99967.13
2022-12-08T15:01:21.036Z,99963.78
2022-12-08T15:04:18.511Z,99964.84
2022-12-08T15:07:13.535Z,99960.88
2022-12-08T15:10:17.158Z,99954.97
2022-12-08T15:13:11.302Z,99960.88
2022-12-08T15:15:58.062Z,99962.41
2022-12-08T15:18:43.534Z,99966.03
2022-12-08T15:21:33.187Z,99957.63
2022-12-08T15:24:26.020Z,99964.34
2022-12-08T15:27:18.200Z,99957.53
2022-12-08T15:30:04.172Z,99968.41
2022-12-08T15:32:49.277Z,99964.06
2022-12-08T15:35:40.570Z,99972.88
2022-12-08T15:38:28.860Z,99972.94
2022-12-08T15:41:15.302Z,99974.25
2022-12-08T15:44:00.576Z,99971.22
2022-12-08T15:46:45.718Z,99971.34
2022-12-08T15:49:31.261Z,99966.03
2022-12-08T15:52:22.397Z,99966.56
2022-12-08T15:55:12.156Z,99967.25
2022-12-08T15:58:51.929Z,99972.44
2022-12-08T16:01:02.697Z,99967.44
2022-12-08T16:09:59.029Z,99972.75
2022-12-08T16:13:48.141Z,99981.41
2022-12-08T16:15:59.781Z,99978.59
2022-12-08T16:18:48.312Z,99982.19
2022-12-08T16:22:04.813Z,99984.63
2022-12-08T16:24:38.670Z,99985.34
2022-12-08T16:27:59.943Z,99980.91
2022-12-08T16:30:34.510Z,99980.81
2022-12-08T16:33:19.470Z,99990.34
2022-12-08T16:36:04.370Z,99988.94
2022-12-08T16:38:49.493Z,99990.56
2022-12-08T16:41:34.421Z,99993.00
2022-12-08T16:44:20.525Z,99997.16
2022-12-08T16:47:10.149Z,99989.75
2022-12-08T16:49:55.546Z,99993.34
2022-12-08T16:52:41.376Z,99991.91
2022-12-08T16:55:26.779Z,99989.97
2022-12-08T16:58:12.010Z,99996.97
2022-12-08T17:00:58.666Z,100009.53
2022-12-08T17:04:01.043Z,100004.25
2022-12-08T17:06:50.011Z,99999.03
2022-12-08T17:09:36.285Z,100006.97
2022-12-08T17:12:21.419Z,100003.91
2022-12-08T17:15:10.004Z,100004.03
2022-12-08T17:17:55.328Z,100014.09
2022-12-08T17:20:40.368Z,100018.19
2022-12-08T17:23:25.797Z,100012.28
2022-12-08T17:26:11.694Z,100017.44
2022-12-08T17:29:01.449Z,100014.94
2022-12-08T17:31:47.326Z,100017.81
2022-12-08T17:34:32.759Z,100018.56
2022-12-08T17:37:18.329Z,100016.63
2022-12-08T17:40:04.677Z,100008.59
2022-12-08T17:42:51.324Z,100017.63
2022-12-08T17:45:44.084Z,100013.16
2022-12-08T17:48:28.980Z,100016.72
2022-12-08T17:51:14.815Z,100010.78
2022-12-08T17:54:00.074Z,100015.16
2022-12-08T17:56:45.568Z,100013.59
2022-12-08T17:59:32.405Z,100019.72
2022-12-08T18:02:17.659Z,100013.03
2022-12-08T18:05:02.507Z,100017.72
2022-12-08T18:07:47.429Z,100022.63
2022-12-08T18:10:32.851Z,100020.63
2022-12-08T18:13:18.178Z,100024.13
2022-12-08T18:16:03.946Z,100017.72
2022-12-08T18:18:49.230Z,100018.59
2022-12-08T18:21:35.756Z,100021.81
2022-12-08T18:24:23.461Z,100016.03
2022-12-08T18:27:08.750Z,100021.50
2022-12-08T18:29:53.940Z,100016.41
2022-12-08T18:32:39.048Z,100010.59
2022-12-08T18:35:24.019Z,100016.28
2022-12-08T18:38:09.122Z,100015.22
2022-12-08T18:40:53.829Z,100010.25
2022-12-08T18:43:38.871Z,100016.03
2022-12-08T18:46:24.911Z,100010.00
2022-12-08T18:49:15.599Z,100007.53
2022-12-08T18:52:00.729Z,100003.16
2022-12-08T18:57:51.141Z,100004.34
2022-12-08T19:00:36.374Z,100004.16
2022-12-08T19:03:21.454Z,99998.22
2022-12-08T19:06:07.077Z,100006.06
2022-12-08T19:08:52.455Z,100007.53
2022-12-08T19:11:38.338Z,100004.78
2022-12-08T19:14:28.510Z,100014.91
2022-12-08T19:17:14.054Z,100009.50
2022-12-08T19:19:59.474Z,100013.59
2022-12-08T19:22:44.719Z,100013.41
2022-12-08T19:25:30.152Z,100019.25
2022-12-08T19:28:15.599Z,100025.69
2022-12-08T19:31:06.177Z,100022.50
2022-12-08T19:33:52.159Z,100024.53
2022-12-08T19:36:37.317Z,100020.50
2022-12-08T19:39:24.112Z,100013.09
2022-12-08T19:42:17.516Z,100016.00
2022-12-08T19:45:13.659Z,100017.69
2022-12-08T19:47:59.307Z,100019.31
2022-12-08T19:50:44.240Z,100026.09
2022-12-08T19:53:29.402Z,100022.13
2022-12-08T19:56:14.814Z,100022.59
2022-12-08T19:59:02.861Z,100027.66
2022-12-08T20:01:48.304Z,100021.13
2022-12-08T20:04:33.729Z,100023.53
2022-12-08T20:07:19.024Z,100031.81
2022-12-08T20:10:12.247Z,100022.16
2022-12-08T20:12:57.618Z,100032.50
2022-12-08T20:15:45.252Z,100032.00
2022-12-08T20:18:30.370Z,100033.13
2022-12-08T20:21:16.062Z,100038.56
2022-12-08T20:24:01.254Z,100038.50
2022-12-08T20:26:46.487Z,100045.38
2022-12-08T20:29:32.211Z,100049.28
2022-12-08T20:32:17.432Z,100055.31
2022-12-08T20:35:05.851Z,100047.78
2022-12-08T20:37:51.308Z,100049.94
2022-12-08T20:40:36.798Z,100045.66
2022-12-08T20:43:22.430Z,100049.75
2022-12-08T20:46:09.996Z,100054.63
2022-12-08T20:48:56.154Z,100058.53
2022-12-08T20:51:42.169Z,100055.94
2022-12-08T20:54:27.465Z,100055.72
2022-12-08T20:57:12.901Z,100061.34
2022-12-08T20:59:57.865Z,100060.44
2022-12-08T21:02:49.734Z,100058.94
2022-12-08T21:05:39.399Z,100065.66
2022-12-08T21:08:27.281Z,100062.16
2022-12-08T21:11:13.133Z,100072.44
2022-12-08T21:13:57.992Z,100070.63
2022-12-08T21:16:43.465Z,100067.00
2022-12-08T21:19:29.248Z,100065.38
2022-12-08T21:22:15.502Z,100070.00
2022-12-08T21:25:01.317Z,100062.97
2022-12-08T21:27:46.500Z,100065.63
2022-12-08T21:30:31.545Z,100066.66
2022-12-08T21:33:16.929Z,100064.53
2022-12-08T21:36:14.710Z,100072.81
2022-12-08T21:39:00.020Z,100069.81
2022-12-08T21:41:45.280Z,100058.78
2022-12-08T21:44:32.083Z,100071.75
2022-12-08T21:47:17.307Z,100062.63
2022-12-08T21:50:03.882Z,100067.59
2022-12-08T21:52:49.672Z,100069.75
2022-12-08T21:55:34.933Z,100063.31
2022-12-08T21:58:20.121Z,100064.22
2022-12-08T22:01:10.840Z,100060.69
2022-12-08T22:03:55.933Z,100060.22
2022-12-08T22:06:41.280Z,100064.44
2022-12-08T22:09:26.720Z,100059.34
2022-12-08T22:12:12.246Z,100063.31
2022-12-08T22:14:57.585Z,100063.88
2022-12-08T22:17:43.974Z,100061.91
2022-12-08T22:20:29.179Z,100060.81
2022-12-08T22:23:14.606Z,100059.88
2022-12-08T22:26:01.714Z,100050.81
2022-12-08T22:28:47.220Z,100042.72
2022-12-08T22:31:34.388Z,100049.28
2022-12-08T22:34:20.091Z,100042.19
2022-12-08T22:37:05.249Z,100047.41
2022-12-08T22:39:51.321Z,100041.25
2022-12-08T22:42:37.472Z,100046.69
2022-12-08T22:45:22.838Z,100042.19
2022-12-08T22:48:10.468Z,100048.41
2022-12-08T22:51:02.082Z,100057.53
2022-12-08T22:53:49.721Z,100051.00
2022-12-08T22:56:39.896Z,100051.91
2022-12-08T22:59:25.368Z,100047.31
2022-12-08T23:02:12.583Z,100038.13
2022-12-08T23:04:57.921Z,100046.88
2022-12-08T23:07:43.706Z,100041.25
2022-12-08T23:10:30.395Z,100040.28
2022-12-08T23:13:17.095Z,100042.84
2022-12-08T23:16:05.683Z,100046.78
2022-12-08T23:18:51.894Z,100031.69
2022-12-08T23:21:36.855Z,100033.00
2022-12-08T23:24:22.304Z,100044.25
2022-12-08T23:27:07.800Z,100036.41
2022-12-08T23:29:52.916Z,100030.44
2022-12-08T23:32:38.502Z,100038.88
2022-12-08T23:35:23.731Z,100031.56
2022-12-08T23:38:09.029Z,100037.34
2022-12-08T23:40:54.504Z,100028.50
2022-12-08T23:43:48.416Z,100031.53
2022-12-08T23:46:33.681Z,100032.72
2022-12-08T23:49:18.858Z,100029.63
2022-12-08T23:52:04.448Z,100031.16
2022-12-08T23:54:50.458Z,100033.22
2022-12-08T23:57:36.261Z,100031.06
